createdAt,value
2023-04-22T00:01:06.802Z,100027.72
2023-04-22T00:03:35.364Z,100026.91
2023-04-22T00:06:02.540Z,100018.81
2023-04-22T00:08:29.262Z,100029.09
2023-04-22T00:10:56.751Z,100030.41
2023-04-22T00:13:23.501Z,100036.88
2023-04-22T00:15:52.722Z,100028.00
2023-04-22T00:18:19.971Z,100023.72
2023-04-22T00:20:48.443Z,100031.78
2023-04-22T00:23:15.719Z,100030.19
2023-04-22T00:25:42.595Z,100021.59
2023-04-22T00:28:09.408Z,100019.16
2023-04-22T00:30:36.747Z,100023.56
2023-04-22T00:33:04.613Z,100020.13
2023-04-22T00:35:31.606Z,100018.88
2023-04-22T00:37:58.645Z,100017.59
2023-04-22T00:40:25.388Z,100012.19
2023-04-22T00:42:52.317Z,100015.97
2023-04-22T00:45:21.956Z,100014.97
2023-04-22T00:47:49.190Z,100010.75
2023-04-22T00:50:16.476Z,100003.81
2023-04-22T00:52:43.284Z,100007.59
2023-04-22T00:55:11.244Z,100012.97
2023-04-22T00:57:38.296Z,100007.31
2023-04-22T01:00:06.718Z,100002.72
2023-04-22T01:02:33.837Z,99997.41
2023-04-22T01:05:01.281Z,99997.97
2023-04-22T01:07:28.626Z,100004.16
2023-04-22T01:09:55.628Z,100003.88
2023-04-22T01:12:22.301Z,100003.88
2023-04-22T01:14:49.561Z,99997.41
2023-04-22T01:17:16.989Z,100008.19
2023-04-22T01:19:44.396Z,100013.75
2023-04-22T01:22:13.429Z,100021.28
2023-04-22T01:24:40.684Z,100019.38
2023-04-22T01:27:08.322Z,100028.06
2023-04-22T01:29:38.077Z,100033.50
2023-04-22T01:32:05.942Z,100028.19
2023-04-22T01:34:33.192Z,100023.38
2023-04-22T01:36:59.932Z,100028.22
2023-04-22T01:39:27.002Z,100018.28
2023-04-22T01:41:53.870Z,100020.16
2023-04-22T01:44:20.646Z,100014.50
2023-04-22T01:46:47.374Z,100013.41
2023-04-22T01:49:14.113Z,100015.28
2023-04-22T01:51:43.201Z,100020.66
2023-04-22T01:54:10.301Z,100012.59
2023-04-22T01:56:38.844Z,100014.50
2023-04-22T01:59:07.643Z,100016.38
2023-04-22T02:01:36.455Z,100015.88
2023-04-22T02:04:06.400Z,100006.53
2023-04-22T02:06:33.728Z,100020.59
2023-04-22T02:09:04.782Z,100018.69
2023-04-22T02:11:31.492Z,100023.78
2023-04-22T02:13:58.534Z,100022.16
2023-04-22T02:16:25.358Z,100021.38
2023-04-22T02:18:52.150Z,100014.97
2023-04-22T02:21:20.848Z,100017.13
2023-04-22T02:23:47.727Z,100026.31
2023-04-22T02:26:14.467Z,100025.72
2023-04-22T02:28:42.812Z,100021.16
2023-04-22T02:31:09.882Z,100025.50
2023-04-22T02:33:39.252Z,100026.31
2023-04-22T02:36:10.104Z,100022.81
2023-04-22T02:38:38.222Z,100019.31
2023-04-22T02:41:05.272Z,100027.13
2023-04-22T02:43:32.391Z,100032.25
2023-04-22T02:45:59.155Z,100042.00
2023-04-22T02:48:26.178Z,100042.88
2023-04-22T02:50:55.813Z,100038.34
2023-04-22T02:53:22.724Z,100037.88
2023-04-22T02:55:49.550Z,100044.94
2023-04-22T02:58:17.719Z,100050.06
2023-04-22T03:00:44.869Z,100042.59
2023-04-22T03:03:12.073Z,100046.66
2023-04-22T03:05:39.478Z,100040.44
2023-04-22T03:08:06.274Z,100041.53
2023-04-22T03:10:33.324Z,100051.00
2023-04-22T03:13:02.336Z,100049.66
2023-04-22T03:15:29.879Z,100042.72
2023-04-22T03:17:56.873Z,100050.25
2023-04-22T03:20:24.250Z,100048.91
2023-04-22T03:22:53.859Z,100049.72
2023-04-22T03:25:23.117Z,100043.81
2023-04-22T03:27:53.271Z,100039.28
2023-04-22T03:30:20.272Z,100039.84
2023-04-22T03:32:47.793Z,100045.28
2023-04-22T03:35:21.696Z,100041.03
2023-04-22T03:37:50.891Z,100037.81
2023-04-22T03:40:22.760Z,100039.19
2023-04-22T03:42:49.778Z,100036.81
2023-04-22T03:45:19.142Z,100031.97
2023-04-22T03:47:53.341Z,100033.09
2023-04-22T03:50:26.233Z,100028.84
2023-04-22T03:52:54.361Z,100031.28
2023-04-22T03:55:21.790Z,100025.69
2023-04-22T03:57:51.349Z,100021.94
2023-04-22T04:00:18.299Z,100017.94
2023-04-22T04:02:51.937Z,100018.47
2023-04-22T04:05:24.297Z,100025.22
2023-04-22T04:07:51.279Z,100020.91
2023-04-22T04:10:18.539Z,100013.69
2023-04-22T04:12:45.921Z,100023.59
2023-04-22T04:15:12.884Z,100019.84
2023-04-22T04:17:40.145Z,100025.50
2023-04-22T04:20:08.990Z,100017.72
2023-04-22T04:22:36.678Z,100024.19
2023-04-22T04:25:07.018Z,100021.25
2023-04-22T04:27:39.531Z,100030.66
2023-04-22T04:30:07.788Z,100024.50
2023-04-22T04:32:43.254Z,100016.16
2023-04-22T04:35:16.457Z,100007.81
2023-04-22T04:37:47.702Z,100008.06
2023-04-22T04:40:15.211Z,100014.47
2023-04-22T04:42:48.209Z,100015.53
2023-04-22T04:45:22.695Z,100012.78
2023-04-22T04:47:50.904Z,100017.63
2023-04-22T04:50:23.150Z,100009.28
2023-04-22T04:52:50.841Z,100019.22
2023-04-22T04:55:23.684Z,100013.03
2023-04-22T04:57:51.361Z,100018.66
2023-04-22T05:00:18.608Z,100011.91
2023-04-22T05:02:46.470Z,100016.97
2023-04-22T05:05:13.922Z,100013.69
2023-04-22T05:07:44.270Z,100013.09
2023-04-22T05:10:14.362Z,100018.91
2023-04-22T05:12:41.740Z,100019.94
2023-04-22T05:15:13.896Z,100024.19
2023-04-22T05:17:42.230Z,100023.06
2023-04-22T05:20:15.676Z,100031.41
2023-04-22T05:22:43.612Z,100037.56
2023-04-22T05:25:11.041Z,100032.72
2023-04-22T05:27:42.735Z,100039.75
2023-04-22T05:30:12.350Z,100058.06
2023-04-22T05:32:40.875Z,100049.75
2023-04-22T05:35:11.568Z,100045.78
2023-04-22T05:37:42.749Z,100052.31
2023-04-22T05:40:11.012Z,100048.13
2023-04-22T05:42:38.355Z,100056.22
2023-04-22T05:45:08.413Z,100053.03
2023-04-22T05:47:41.160Z,100056.78
2023-04-22T05:50:09.215Z,100049.81
2023-04-22T05:52:49.793Z,100045.53
2023-04-22T05:55:19.192Z,100049.31
2023-04-22T05:57:46.161Z,100048.75
2023-04-22T06:00:26.941Z,100053.56
2023-04-22T06:03:12.548Z,100053.81
2023-04-22T06:05:41.008Z,100054.06
2023-04-22T06:08:08.144Z,100060.72
2023-04-22T06:10:36.779Z,100061.44
2023-04-22T06:13:03.792Z,100067.81
2023-04-22T06:15:31.959Z,100072.81
2023-04-22T06:17:59.649Z,100070.28
2023-04-22T06:20:26.864Z,100065.78
2023-04-22T06:22:54.578Z,100058.00
2023-04-22T06:25:22.767Z,100063.63
2023-04-22T06:27:49.965Z,100044.31
2023-04-22T06:30:17.430Z,100044.75
2023-04-22T06:32:44.471Z,100045.66
2023-04-22T06:35:11.354Z,100039.34
2023-04-22T06:37:38.281Z,100042.84
2023-04-22T06:40:08.234Z,100048.16
2023-04-22T06:42:53.451Z,100047.72
2023-04-22T06:45:46.736Z,100031.91
2023-04-22T06:48:23.334Z,100049.91
2023-04-22T06:51:13.231Z,100050.75
2023-04-22T06:53:40.190Z,100046.69
2023-04-22T06:56:08.463Z,100043.19
2023-04-22T06:58:35.605Z,100040.06
2023-04-22T07:01:02.616Z,100047.34
2023-04-22T07:03:31.908Z,100042.16
2023-04-22T07:06:06.757Z,100046.88
2023-04-22T07:08:34.232Z,100039.94
2023-04-22T07:11:02.176Z,100042.88
2023-04-22T07:13:37.930Z,100043.44
2023-04-22T07:16:04.981Z,100042.00
2023-04-22T07:18:33.025Z,100039.53
2023-04-22T07:20:59.954Z,100043.31
2023-04-22T07:23:26.823Z,100034.09
2023-04-22T07:25:53.861Z,100030.75
2023-04-22T07:28:20.894Z,100036.03
2023-04-22T07:30:48.897Z,100032.97
2023-04-22T07:33:16.150Z,100031.63
2023-04-22T07:35:43.002Z,100034.19
2023-04-22T07:38:10.677Z,100036.97
2023-04-22T07:40:39.003Z,100035.94
2023-04-22T07:43:06.499Z,100030.00
2023-04-22T07:45:33.684Z,100030.44
2023-04-22T07:48:00.749Z,100028.38
2023-04-22T07:50:28.661Z,100037.19
2023-04-22T07:52:55.774Z,100040.19
2023-04-22T07:55:24.021Z,100039.59
2023-04-22T07:57:50.720Z,100040.28
2023-04-22T08:00:17.810Z,100038.16
2023-04-22T08:02:44.779Z,100037.25
2023-04-22T08:05:11.844Z,100030.16
2023-04-22T08:07:39.801Z,100036.44
2023-04-22T08:10:07.293Z,100032.19
2023-04-22T08:12:34.145Z,100029.63
2023-04-22T08:15:02.389Z,100031.41
2023-04-22T08:17:29.360Z,100025.97
2023-04-22T08:19:56.094Z,100029.59
2023-04-22T08:22:23.999Z,100030.66
2023-04-22T08:24:51.005Z,100027.63
2023-04-22T08:27:19.445Z,100030.31
2023-04-22T08:29:46.253Z,100028.78
2023-04-22T08:32:13.202Z,100020.34
2023-04-22T08:34:40.400Z,100031.28
2023-04-22T08:37:08.179Z,100029.28
2023-04-22T08:39:35.072Z,100028.94
2023-04-22T08:42:02.393Z,100020.66
2023-04-22T08:44:30.553Z,100026.34
2023-04-22T08:46:59.527Z,100019.03
2023-04-22T08:49:28.718Z,100009.50
2023-04-22T08:51:56.664Z,100006.16
2023-04-22T08:54:24.465Z,100005.16
2023-04-22T08:56:52.098Z,99999.50
2023-04-22T08:59:20.618Z,99987.50
2023-04-22T09:01:52.171Z,99987.31
2023-04-22T09:04:19.672Z,99985.53
2023-04-22T09:06:47.149Z,99978.59
2023-04-22T09:09:14.825Z,99982.59
2023-04-22T09:11:48.256Z,99976.56
2023-04-22T09:14:20.015Z,99981.56
2023-04-22T09:16:48.625Z,99975.03
2023-04-22T09:19:23.099Z,99979.84
2023-04-22T09:21:54.297Z,99975.06
2023-04-22T09:24:21.705Z,99979.84
2023-04-22T09:26:49.868Z,99971.22
2023-04-22T09:29:18.158Z,99975.13
2023-04-22T09:31:50.249Z,99960.78
2023-04-22T09:34:17.501Z,99970.06
2023-04-22T09:36:46.896Z,99969.00
2023-04-22T09:39:14.935Z,99965.78
2023-04-22T09:41:45.912Z,99958.34
2023-04-22T09:44:20.483Z,99942.84
2023-04-22T09:46:51.347Z,99954.38
2023-04-22T09:49:21.351Z,99944.63
2023-04-22T09:51:49.829Z,99946.41
2023-04-22T09:54:16.777Z,99942.63
2023-04-22T09:56:53.888Z,99945.06
2023-04-22T09:59:28.737Z,99946.00
2023-04-22T10:02:04.290Z,99942.53
2023-04-22T10:04:31.307Z,99935.31
2023-04-22T10:06:58.381Z,99925.56
2023-04-22T10:09:26.115Z,99924.88
2023-04-22T10:11:55.230Z,99918.31
2023-04-22T10:14:22.123Z,99908.56
2023-04-22T10:16:52.177Z,99909.31
2023-04-22T10:19:23.896Z,99911.72
2023-04-22T10:21:59.194Z,99905.25
2023-04-22T10:24:28.393Z,99905.31
2023-04-22T10:26:57.901Z,99912.03
2023-04-22T10:29:26.938Z,99896.34
2023-04-22T10:32:03.738Z,99898.34
2023-04-22T10:34:34.328Z,99899.47
2023-04-22T10:37:02.242Z,99884.78
2023-04-22T10:39:29.856Z,99896.00
2023-04-22T10:42:09.956Z,99897.44
2023-04-22T10:44:51.043Z,99887.44
2023-04-22T10:47:33.002Z,99889.69
2023-04-22T10:50:09.896Z,99891.00
2023-04-22T10:52:37.208Z,99888.78
2023-04-22T10:55:04.394Z,99881.38
2023-04-22T10:57:41.726Z,99878.41
2023-04-22T11:00:23.744Z,99877.91
2023-04-22T11:03:05.784Z,99869.44
2023-04-22T11:05:34.283Z,99859.19
2023-04-22T11:08:14.538Z,99861.75
2023-04-22T11:10:47.549Z,99858.41
2023-04-22T11:13:17.110Z,99858.63
2023-04-22T11:15:54.265Z,99853.38
2023-04-22T11:18:27.153Z,99856.88
2023-04-22T11:20:54.700Z,99862.53
2023-04-22T11:23:28.772Z,99854.78
2023-04-22T11:26:00.430Z,99854.19
2023-04-22T11:28:27.538Z,99853.16
2023-04-22T11:31:04.324Z,99844.47
2023-04-22T11:33:34.754Z,99845.13
2023-04-22T11:36:01.919Z,99851.41
2023-04-22T11:38:29.027Z,99856.13
2023-04-22T11:40:58.520Z,99846.31
2023-04-22T11:43:26.144Z,99844.13
2023-04-22T11:45:56.371Z,99838.38
2023-04-22T11:48:24.652Z,99836.22
2023-04-22T11:51:12.902Z,99839.75
2023-04-22T11:53:49.634Z,99837.56
2023-04-22T11:56:16.489Z,99837.00
2023-04-22T11:58:44.343Z,99835.13
2023-04-22T12:01:14.237Z,99823.69
2023-04-22T12:03:45.450Z,99827.28
2023-04-22T12:06:12.510Z,99834.97
2023-04-22T12:08:44.385Z,99831.16
2023-04-22T12:11:12.577Z,99844.81
2023-04-22T12:13:41.651Z,99835.38
2023-04-22T12:16:15.787Z,99847.72
2023-04-22T12:18:53.943Z,99844.41
2023-04-22T12:21:23.853Z,99847.00
2023-04-22T12:23:56.141Z,99854.34
2023-04-22T12:26:26.374Z,99855.81
2023-04-22T12:28:55.203Z,99861.66
2023-04-22T12:31:24.953Z,99864.81
2023-04-22T12:33:56.543Z,99866.19
2023-04-22T12:36:23.906Z,99859.63
2023-04-22T12:38:52.443Z,99869.59
2023-04-22T12:41:25.039Z,99870.16
2023-04-22T12:43:55.832Z,99871.88
2023-04-22T12:46:23.160Z,99872.47
2023-04-22T12:48:56.905Z,99872.72
2023-04-22T12:51:24.141Z,99859.56
2023-04-22T12:53:51.313Z,99868.84
2023-04-22T12:56:21.319Z,99868.41
2023-04-22T12:58:48.497Z,99873.78
2023-04-22T13:01:18.223Z,99874.75
2023-04-22T13:03:47.003Z,99882.66
2023-04-22T13:06:14.016Z,99882.03
2023-04-22T13:08:51.938Z,99883.75
2023-04-22T13:11:18.874Z,99893.09
2023-04-22T13:13:58.187Z,99894.56
2023-04-22T13:16:25.205Z,99895.75
2023-04-22T13:18:53.104Z,99900.97
2023-04-22T13:21:20.491Z,99897.78
2023-04-22T13:23:51.495Z,99908.47
2023-04-22T13:26:19.116Z,99909.06
2023-04-22T13:28:45.963Z,99911.25
2023-04-22T13:31:13.027Z,99906.97
2023-04-22T13:33:40.840Z,99894.53
2023-04-22T13:36:08.325Z,99906.03
2023-04-22T13:38:35.502Z,99918.69
2023-04-22T13:41:03.438Z,99909.19
2023-04-22T13:43:31.578Z,99905.84
2023-04-22T13:45:59.985Z,99912.09
2023-04-22T13:48:27.680Z,99910.78
2023-04-22T13:50:54.712Z,99914.69
2023-04-22T13:53:21.706Z,99911.31
2023-04-22T13:55:48.972Z,99903.22
2023-04-22T13:58:16.875Z,99903.81
2023-04-22T14:00:44.053Z,99893.69
2023-04-22T14:03:12.949Z,99896.81
2023-04-22T14:05:41.088Z,99896.97
2023-04-22T14:08:07.949Z,99896.81
2023-04-22T14:10:35.197Z,99903.16
2023-04-22T14:13:02.451Z,99896.81
2023-04-22T14:15:29.358Z,99903.34
2023-04-22T14:17:56.298Z,99894.94
2023-04-22T14:20:25.257Z,99902.97
2023-04-22T14:22:52.274Z,99897.03
2023-04-22T14:25:21.802Z,99892.19
2023-04-22T14:27:49.945Z,99902.88
2023-04-22T14:30:17.104Z,99897.41
2023-04-22T14:32:44.576Z,99902.16
2023-04-22T14:35:12.100Z,99897.47
2023-04-22T14:37:46.979Z,99895.44
2023-04-22T14:40:23.340Z,99898.88
2023-04-22T14:42:51.161Z,99891.03
2023-04-22T14:45:21.098Z,99892.00
2023-04-22T14:47:48.734Z,99885.19
2023-04-22T14:50:18.810Z,99894.66
2023-04-22T14:52:46.825Z,99888.63
2023-04-22T14:55:23.292Z,99885.69
2023-04-22T14:57:54.403Z,99886.75
2023-04-22T15:00:21.537Z,99888.47
2023-04-22T15:02:50.221Z,99884.09
2023-04-22T15:05:18.221Z,99880.47
2023-04-22T15:07:45.366Z,99869.28
2023-04-22T15:10:12.495Z,99867.25
2023-04-22T15:12:43.220Z,99872.28
2023-04-22T15:15:13.468Z,99878.94
2023-04-22T15:17:41.345Z,99881.19
2023-04-22T15:20:09.597Z,99879.53
2023-04-22T15:22:37.067Z,99884.06
2023-04-22T15:25:04.731Z,99888.91
2023-04-22T15:27:34.804Z,99889.22
2023-04-22T15:30:04.364Z,99892.66
2023-04-22T15:32:31.701Z,99883.56
2023-04-22T15:34:58.875Z,99875.78
2023-04-22T15:37:25.962Z,99878.72
2023-04-22T15:39:52.682Z,99881.88
2023-04-22T15:42:19.552Z,99881.50
2023-04-22T15:44:46.439Z,99889.34
2023-04-22T15:47:13.597Z,99871.34
2023-04-22T15:49:40.896Z,99877.53
2023-04-22T15:52:08.501Z,99888.91
2023-04-22T15:54:38.787Z,99878.53
2023-04-22T15:57:09.454Z,99881.53
2023-04-22T15:59:40.558Z,99881.06
2023-04-22T16:02:09.377Z,99878.53
2023-04-22T16:04:36.530Z,99881.09
2023-04-22T16:07:06.137Z,99880.09
2023-04-22T16:09:33.273Z,99880.63
2023-04-22T16:12:00.169Z,99881.34
2023-04-22T16:14:27.015Z,99883.63
2023-04-22T16:16:53.814Z,99877.72
2023-04-22T16:19:20.963Z,99881.59
2023-04-22T16:21:48.832Z,99880.28
2023-04-22T16:24:15.777Z,99880.81
2023-04-22T16:26:43.122Z,99882.63
2023-04-22T16:29:10.063Z,99878.75
2023-04-22T16:31:38.665Z,99884.09
2023-04-22T16:34:05.679Z,99882.56
2023-04-22T16:36:32.762Z,99881.53
2023-04-22T16:39:03.941Z,99883.41
2023-04-22T16:41:31.311Z,99874.41
2023-04-22T16:44:01.178Z,99882.53
2023-04-22T16:46:28.009Z,99879.25
2023-04-22T16:48:55.180Z,99865.84
2023-04-22T16:51:22.141Z,99877.88
2023-04-22T16:53:49.163Z,99882.22
2023-04-22T16:56:16.108Z,99869.72
2023-04-22T16:58:43.089Z,99869.25
2023-04-22T17:01:10.150Z,99878.94
2023-04-22T17:03:37.857Z,99879.72
2023-04-22T17:06:04.761Z,99879.34
2023-04-22T17:08:31.497Z,99873.56
2023-04-22T17:10:58.444Z,99878.13
2023-04-22T17:13:25.388Z,99878.81
2023-04-22T17:15:52.433Z,99880.41
2023-04-22T17:18:19.178Z,99881.78
2023-04-22T17:20:46.279Z,99884.06
2023-04-22T17:23:12.962Z,99883.84
2023-04-22T17:25:39.744Z,99886.00
2023-04-22T17:28:06.590Z,99883.66
2023-04-22T17:30:33.731Z,99880.47
2023-04-22T17:33:01.145Z,99892.06
2023-04-22T17:35:28.821Z,99887.31
2023-04-22T17:37:57.791Z,99894.13
2023-04-22T17:40:25.364Z,99892.31
2023-04-22T17:42:52.519Z,99890.94
2023-04-22T17:45:19.303Z,99894.13
2023-04-22T17:47:48.479Z,99885.03
2023-04-22T17:50:15.513Z,99898.88
2023-04-22T17:52:43.954Z,99891.25
2023-04-22T17:55:11.034Z,99899.53
2023-04-22T17:57:37.808Z,99901.91
2023-04-22T18:00:06.208Z,99907.78
2023-04-22T18:02:34.501Z,99907.41
2023-04-22T18:05:01.340Z,99912.81
2023-04-22T18:07:27.990Z,99924.41
2023-04-22T18:09:54.841Z,99930.38
2023-04-22T18:12:24.153Z,99922.75
2023-04-22T18:14:50.777Z,99932.25
2023-04-22T18:17:20.130Z,99932.75
2023-04-22T18:19:50.902Z,99945.78
2023-04-22T18:22:19.371Z,99953.34
2023-04-22T18:24:46.112Z,99954.34
2023-04-22T18:27:12.856Z,99952.25
2023-04-22T18:29:39.731Z,99952.78
2023-04-22T18:32:06.590Z,99957.97
2023-04-22T18:34:33.381Z,99969.38
2023-04-22T18:37:00.383Z,99958.22
2023-04-22T18:39:27.137Z,99967.69
2023-04-22T18:41:53.937Z,99967.09
2023-04-22T18:44:20.923Z,99965.34
2023-04-22T18:46:47.619Z,99976.88
2023-04-22T18:49:14.469Z,99978.66
2023-04-22T18:51:41.993Z,99982.00
2023-04-22T18:54:09.724Z,99983.44
2023-04-22T18:56:36.695Z,99981.06
2023-04-22T18:59:03.536Z,99985.56
2023-04-22T19:01:30.726Z,99987.34
2023-04-22T19:03:57.905Z,99996.13
2023-04-22T19:06:24.604Z,99992.94
2023-04-22T19:08:56.011Z,99992.00
2023-04-22T19:11:24.866Z,99991.50
2023-04-22T19:13:53.805Z,99996.47
2023-04-22T19:16:21.046Z,100000.31
2023-04-22T19:18:48.771Z,99986.28
2023-04-22T19:21:18.080Z,99991.56
2023-04-22T19:23:44.874Z,99993.78
2023-04-22T19:26:11.617Z,99987.56
2023-04-22T19:28:38.380Z,99984.84
2023-04-22T19:31:05.519Z,99999.06
2023-04-22T19:33:32.394Z,99995.88
2023-04-22T19:35:59.300Z,100003.06
2023-04-22T19:38:26.407Z,100003.91
2023-04-22T19:40:54.593Z,99997.53
2023-04-22T19:43:22.390Z,100007.28
2023-04-22T19:45:49.399Z,100002.97
2023-04-22T19:48:17.223Z,100015.13
2023-04-22T19:50:44.755Z,100013.22
2023-04-22T19:53:12.326Z,100018.66
2023-04-22T19:55:39.850Z,100012.69
2023-04-22T19:58:07.924Z,100019.09
2023-04-22T20:00:35.635Z,100021.97
2023-04-22T20:03:03.491Z,100023.41
2023-04-22T20:05:30.669Z,100025.66
2023-04-22T20:07:58.761Z,100020.06
2023-04-22T20:10:26.608Z,100030.75
2023-04-22T20:12:53.887Z,100030.25
2023-04-22T20:15:21.323Z,100034.25
2023-04-22T20:17:49.186Z,100033.94
2023-04-22T20:20:17.658Z,100035.19
2023-04-22T20:22:46.202Z,100035.84
2023-04-22T20:25:17.164Z,100030.72
2023-04-22T20:27:44.534Z,100033.41
2023-04-22T20:30:13.985Z,100038.66
2023-04-22T20:32:42.036Z,100032.25
2023-04-22T20:35:12.472Z,100037.31
2023-04-22T20:37:40.276Z,100035.38
2023-04-22T20:40:11.310Z,100041.72
2023-04-22T20:42:38.239Z,100038.50
2023-04-22T20:45:06.416Z,100037.66
2023-04-22T20:47:36.180Z,100037.66
2023-04-22T20:50:03.946Z,100036.38
2023-04-22T20:52:30.718Z,100033.97
2023-04-22T20:54:59.801Z,100044.19
2023-04-22T20:57:26.830Z,100030.03
2023-04-22T20:59:55.533Z,100023.50
2023-04-22T21:02:24.664Z,100029.69
2023-04-22T21:04:52.455Z,100028.28
2023-04-22T21:07:21.471Z,100027.66
2023-04-22T21:09:48.318Z,100030.84
2023-04-22T21:12:17.383Z,100034.34
2023-04-22T21:14:46.997Z,100017.00
2023-04-22T21:17:27.434Z,100020.50
2023-04-22T21:19:57.606Z,100021.75
2023-04-22T21:22:25.765Z,100019.69
2023-04-22T21:24:56.142Z,100023.00
2023-04-22T21:27:23.286Z,100018.72
2023-04-22T21:29:50.788Z,100018.72
2023-04-22T21:32:20.154Z,100020.13
2023-04-22T21:34:47.113Z,100007.22
2023-04-22T21:37:14.147Z,100017.06
2023-04-22T21:39:41.449Z,100016.56
2023-04-22T21:42:10.919Z,100019.59
2023-04-22T21:44:38.145Z,100022.13
2023-04-22T21:47:05.969Z,100020.88
2023-04-22T21:49:32.784Z,100018.63
2023-04-22T21:51:59.701Z,100017.81
2023-04-22T21:54:26.683Z,100020.88
2023-04-22T21:56:53.454Z,100022.25
2023-04-22T21:59:24.876Z,100029.59
2023-04-22T22:01:52.133Z,100025.91
2023-04-22T22:04:19.917Z,100028.13
2023-04-22T22:06:47.161Z,100032.56
2023-04-22T22:09:14.220Z,100022.63
2023-04-22T22:11:42.279Z,100028.53
2023-04-22T22:14:09.362Z,100030.59
2023-04-22T22:16:38.542Z,100035.06
2023-04-22T22:19:06.452Z,100034.91
2023-04-22T22:21:33.409Z,100027.84
2023-04-22T22:24:00.788Z,100029.84
2023-04-22T22:26:28.146Z,100030.00
2023-04-22T22:28:55.740Z,100030.63
2023-04-22T22:31:23.386Z,100038.34
2023-04-22T22:33:50.798Z,100042.38
2023-04-22T22:36:17.985Z,100038.88
2023-04-22T22:38:45.057Z,100043.97
2023-04-22T22:41:14.252Z,100044.59
2023-04-22T22:43:41.402Z,100045.19
2023-04-22T22:46:08.554Z,100046.81
2023-04-22T22:48:35.555Z,100046.47
2023-04-22T22:51:02.523Z,100041.91
2023-04-22T22:53:29.466Z,100054.13
2023-04-22T22:55:58.996Z,100050.84
2023-04-22T22:58:27.002Z,100050.97
2023-04-22T23:00:54.179Z,100057.47
2023-04-22T23:03:21.385Z,100049.47
2023-04-22T23:05:48.659Z,100058.91
2023-04-22T23:08:16.585Z,100054.09
2023-04-22T23:10:43.492Z,100052.13
2023-04-22T23:13:10.349Z,100054.94
2023-04-22T23:15:37.870Z,100055.16
2023-04-22T23:18:06.485Z,100045.63
2023-04-22T23:20:34.240Z,100052.31
2023-04-22T23:23:03.881Z,100048.69
2023-04-22T23:25:31.068Z,100044.09
2023-04-22T23:27:58.378Z,100040.38
2023-04-22T23:30:25.612Z,100048.09
2023-04-22T23:32:57.480Z,100038.28
2023-04-22T23:35:27.602Z,100039.88
2023-04-22T23:37:54.782Z,100036.09
2023-04-22T23:40:21.669Z,100039.88
2023-04-22T23:42:48.546Z,100041.28
2023-04-22T23:45:18.207Z,100044.41
2023-04-22T23:47:44.957Z,100049.31
2023-04-22T23:50:14.134Z,100051.13
2023-04-22T23:52:44.888Z,100045.25
2023-04-22T23:55:13.941Z,100040.31
2023-04-22T23:57:41.134Z,100042.16
